createdAt,value
2022-10-24T00:06:19.379Z,18.02
2022-10-24T00:08:51.118Z,19.88
2022-10-24T00:11:44.806Z,18.08
2022-10-24T00:14:39.452Z,17.52
2022-10-24T00:17:30.798Z,18.15
2022-10-24T00:20:02.233Z,20.77
2022-10-24T00:22:55.158Z,19.17
2022-10-24T00:25:26.173Z,19.13
2022-10-24T00:27:57.252Z,19.38
2022-10-24T00:30:28.452Z,18.67
2022-10-24T00:33:00.087Z,19.02
2022-10-24T00:38:24.208Z,20.33
2022-10-24T00:40:55.241Z,18.85
2022-10-24T00:43:46.241Z,20.05
2022-10-24T00:46:19.144Z,18.00
2022-10-24T00:48:53.600Z,18.60
2022-10-24T00:51:30.131Z,22.27
2022-10-24T00:54:05.961Z,19.90
2022-10-24T00:57:28.310Z,22.02
2022-10-24T01:00:04.087Z,17.58
2022-10-24T01:02:55.594Z,19.70
2022-10-24T01:05:32.519Z,18.30
2022-10-24T01:08:18.558Z,17.88
2022-10-24T01:14:00.405Z,18.87
2022-10-24T01:17:04.438Z,20.30
2022-10-24T01:20:12.657Z,21.73
2022-10-24T01:32:54.880Z,18.05
2022-10-24T01:35:39.690Z,16.98
2022-10-24T01:39:09.049Z,19.75
2022-10-24T01:41:42.219Z,24.60
2022-10-24T01:44:35.274Z,19.85
2022-10-24T01:47:45.293Z,22.10
2022-10-24T01:50:18.295Z,21.10
2022-10-24T01:53:27.720Z,22.83
2022-10-24T01:56:00.346Z,22.92
2022-10-24T01:59:33.560Z,21.17
2022-10-24T02:02:27.848Z,20.73
2022-10-24T02:05:29.935Z,23.83
2022-10-24T02:08:09.493Z,19.45
2022-10-24T02:10:49.216Z,20.85
2022-10-24T02:13:33.819Z,16.52
2022-10-24T02:16:25.121Z,18.00
2022-10-24T02:19:39.457Z,19.25
2022-10-24T02:22:50.336Z,18.65
2022-10-24T02:25:52.517Z,19.35
2022-10-24T04:39:27.146Z,26.42
2022-10-24T04:42:01.518Z,23.60
2022-10-24T04:47:39.015Z,26.13
2022-10-24T04:50:10.697Z,23.25
2022-10-24T04:52:50.718Z,20.30
2022-10-24T04:55:50.720Z,24.83
2022-10-24T04:58:42.983Z,21.63
2022-10-24T05:01:14.550Z,21.13
2022-10-24T05:03:54.907Z,23.02
2022-10-24T05:06:46.234Z,20.55
2022-10-24T05:09:21.074Z,22.23
2022-10-24T05:12:03.711Z,24.13
2022-10-24T05:14:54.688Z,23.13
2022-10-24T05:17:31.844Z,22.13
2022-10-24T05:20:22.896Z,23.85
2022-10-24T05:22:57.623Z,20.75
2022-10-24T05:25:51.915Z,20.88
2022-10-24T05:28:43.023Z,21.90
2022-10-24T05:31:20.295Z,18.42
2022-10-24T05:34:11.881Z,22.85
2022-10-24T05:36:46.889Z,20.05
2022-10-24T05:39:21.209Z,24.10
2022-10-24T05:41:57.801Z,20.58
2022-10-24T05:44:52.708Z,21.40
2022-10-24T05:47:29.161Z,19.38
2022-10-24T05:50:04.047Z,20.50
2022-10-24T05:52:37.852Z,19.95
2022-10-24T05:55:33.327Z,18.38
2022-10-24T05:58:30.517Z,19.33
2022-10-24T06:01:55.065Z,20.67
2022-10-24T06:04:46.850Z,19.52
2022-10-24T06:07:26.769Z,17.25
2022-10-24T06:10:20.933Z,19.05
2022-10-24T06:12:57.886Z,17.30
2022-10-24T06:21:50.120Z,18.85
2022-10-24T06:52:52.166Z,17.02
2022-10-24T06:55:26.690Z,17.50
2022-10-24T06:58:00.297Z,19.83
2022-10-24T07:00:31.400Z,18.77
2022-10-24T07:03:02.811Z,18.83
2022-10-24T07:05:33.741Z,18.27
2022-10-24T07:08:33.337Z,19.92
2022-10-24T07:11:25.337Z,17.67
2022-10-24T07:14:20.298Z,17.42
2022-10-24T07:16:51.430Z,18.35
2022-10-24T07:19:42.977Z,17.08
2022-10-24T07:22:14.024Z,16.13
2022-10-24T07:24:44.971Z,15.75
2022-10-24T07:27:42.047Z,14.80
2022-10-24T07:30:20.010Z,15.15
2022-10-24T07:32:51.168Z,17.67
2022-10-24T07:35:53.036Z,16.23
2022-10-24T07:55:24.640Z,15.40
2022-10-24T08:01:30.370Z,15.98
2022-10-24T08:04:24.603Z,17.40
2022-10-24T08:07:18.469Z,17.02
2022-10-24T08:09:52.528Z,18.25
2022-10-24T08:12:46.666Z,20.35
2022-10-24T08:15:18.035Z,15.60
2022-10-24T08:17:49.139Z,15.90
2022-10-24T08:20:47.079Z,19.73
2022-10-24T08:23:23.141Z,16.55
2022-10-24T08:35:08.976Z,15.93
2022-10-24T08:37:41.611Z,15.10
2022-10-24T08:40:24.773Z,16.60
2022-10-24T08:42:57.137Z,15.68
2022-10-24T08:45:45.019Z,15.50
2022-10-24T08:48:52.590Z,17.48
2022-10-24T08:52:06.416Z,20.13
2022-10-24T08:55:20.323Z,16.02
2022-10-24T08:58:36.651Z,15.57
2022-10-24T09:01:26.508Z,16.70
2022-10-24T09:04:22.661Z,19.52
2022-10-24T09:10:32.101Z,19.90
2022-10-24T09:13:04.574Z,15.38
2022-10-24T09:15:57.028Z,15.75
2022-10-24T09:19:00.179Z,14.93
2022-10-24T09:21:32.280Z,16.52
2022-10-24T09:27:38.303Z,18.85
2022-10-24T09:53:42.460Z,18.10
2022-10-24T09:56:16.634Z,15.85
2022-10-24T09:58:47.883Z,14.52
2022-10-24T10:01:19.114Z,15.20
2022-10-24T10:04:18.957Z,16.38
2022-10-24T10:07:27.430Z,15.00
2022-10-24T10:10:05.740Z,15.02
2022-10-24T10:13:20.047Z,17.77
2022-10-24T10:16:28.638Z,15.70
2022-10-24T10:19:14.904Z,15.65
2022-10-24T11:27:13.363Z,16.27
2022-10-24T11:39:43.499Z,15.17
2022-10-24T11:42:22.488Z,16.20
2022-10-24T11:45:10.968Z,16.98
2022-10-24T11:48:14.786Z,14.18
2022-10-24T11:51:31.210Z,14.10
2022-10-24T11:54:24.028Z,12.67
2022-10-24T11:57:32.370Z,13.98
2022-10-24T12:00:30.539Z,16.67
2022-10-24T12:03:55.529Z,13.38
2022-10-24T12:07:10.748Z,16.08
2022-10-24T12:10:28.385Z,15.65
2022-10-24T12:13:33.929Z,14.63
2022-10-24T12:16:27.949Z,16.55
2022-10-24T12:19:22.593Z,18.70
2022-10-24T12:22:04.534Z,19.10
2022-10-24T12:24:40.399Z,15.13
2022-10-24T12:27:23.799Z,15.73
2022-10-24T12:30:13.394Z,14.32
2022-10-24T12:32:45.221Z,17.52
2022-10-24T12:35:59.950Z,16.05
2022-10-24T12:42:14.968Z,15.02
2022-10-24T12:44:47.607Z,16.98
2022-10-24T12:47:58.141Z,14.15
2022-10-24T12:54:13.827Z,16.10
2022-10-24T12:56:55.572Z,16.90
2022-10-24T12:59:33.380Z,16.58
2022-10-24T13:02:15.544Z,15.48
2022-10-24T13:11:58.843Z,14.00
2022-10-24T13:15:14.119Z,14.43
2022-10-24T13:18:25.995Z,12.85
2022-10-24T13:21:28.664Z,19.15
2022-10-24T13:24:18.285Z,18.08
2022-10-24T13:27:12.729Z,14.82
2022-10-24T13:30:20.288Z,15.88
2022-10-24T13:33:34.441Z,15.40
2022-10-24T13:36:28.675Z,16.85
2022-10-24T13:39:13.347Z,15.48
2022-10-24T14:21:07.834Z,15.60
2022-10-24T14:24:06.247Z,15.52
2022-10-24T14:29:35.106Z,16.10
2022-10-24T14:32:12.891Z,16.05
2022-10-24T16:46:46.634Z,16.35
2022-10-24T16:49:18.585Z,16.05
2022-10-24T16:52:13.161Z,15.60
2022-10-24T16:55:04.518Z,15.30
2022-10-24T16:57:35.952Z,16.50
2022-10-24T17:00:28.383Z,14.55
2022-10-24T17:03:20.266Z,13.88
2022-10-24T17:05:53.678Z,14.40
2022-10-24T17:08:46.236Z,13.48
2022-10-24T17:11:39.868Z,15.13
2022-10-24T17:15:03.389Z,13.98
2022-10-24T17:17:35.490Z,15.77
2022-10-24T17:20:07.444Z,15.43
2022-10-24T17:22:40.853Z,15.07
2022-10-24T18:11:14.285Z,14.27
2022-10-24T19:44:17.134Z,16.03
2022-10-24T19:47:09.277Z,18.15
2022-10-24T19:50:03.056Z,16.17
2022-10-24T19:52:33.896Z,15.85
2022-10-24T19:55:04.775Z,14.95
2022-10-24T19:57:35.591Z,14.48
2022-10-24T20:00:07.144Z,16.88
2022-10-24T20:02:43.415Z,14.80
2022-10-24T20:05:15.417Z,15.88
2022-10-24T20:08:10.099Z,14.13
2022-10-24T20:11:07.314Z,14.13
2022-10-24T20:13:58.670Z,17.52
2022-10-24T20:16:52.835Z,13.77
2022-10-24T20:19:23.937Z,14.52
2022-10-24T20:21:56.820Z,16.20
2022-10-24T20:24:31.960Z,17.73
2022-10-24T20:27:03.684Z,14.40
2022-10-24T20:30:00.566Z,16.48
2022-10-24T20:32:31.425Z,16.00
2022-10-24T20:38:22.730Z,13.48
2022-10-24T20:41:14.316Z,17.80
2022-10-24T20:44:11.958Z,14.35
2022-10-24T20:49:46.283Z,16.73
2022-10-24T20:52:17.207Z,14.73
2022-10-24T20:55:19.671Z,16.13
2022-10-24T20:58:00.692Z,14.80
2022-10-24T21:00:51.856Z,15.73
2022-10-24T21:04:03.060Z,16.73
2022-10-24T21:06:56.679Z,16.90
2022-10-24T21:09:30.990Z,17.05
2022-10-24T21:12:24.486Z,17.77
2022-10-24T21:15:19.256Z,15.17
2022-10-24T21:17:50.913Z,14.18
2022-10-24T21:20:23.590Z,13.13
2022-10-24T21:22:55.695Z,15.07
2022-10-24T21:25:26.852Z,13.38
2022-10-24T21:28:24.550Z,15.68
2022-10-24T21:30:56.199Z,14.85
2022-10-24T21:33:47.544Z,14.32
2022-10-24T21:36:21.748Z,14.55
2022-10-24T21:38:55.327Z,16.23
2022-10-24T21:41:28.075Z,14.57
2022-10-24T21:44:00.131Z,15.10
2022-10-24T21:46:31.173Z,16.95
2022-10-24T21:49:38.351Z,17.63
2022-10-24T21:52:29.615Z,18.10
2022-10-24T21:55:23.260Z,18.20
2022-10-24T21:58:14.326Z,15.55
2022-10-24T22:01:12.569Z,15.52
2022-10-24T22:04:09.826Z,17.00
2022-10-24T22:06:40.859Z,12.82
2022-10-24T22:09:32.064Z,15.93
2022-10-24T22:12:03.124Z,14.98
2022-10-24T22:14:53.964Z,15.90
2022-10-24T22:18:07.375Z,15.80
2022-10-24T22:20:38.458Z,16.92
2022-10-24T22:23:35.337Z,16.40
2022-10-24T22:26:06.221Z,14.18
2022-10-24T22:28:37.234Z,16.15
2022-10-24T22:31:37.790Z,16.98
2022-10-24T22:34:29.684Z,16.13
2022-10-24T22:37:41.141Z,14.60
2022-10-24T22:40:33.073Z,15.02
2022-10-24T23:21:43.474Z,16.70
2022-10-24T23:24:37.719Z,17.92
2022-10-24T23:27:14.668Z,16.48
2022-10-24T23:30:27.548Z,14.88
2022-10-24T23:32:59.768Z,16.23
2022-10-24T23:36:00.892Z,14.75
2022-10-24T23:38:32.442Z,14.02
2022-10-24T23:41:29.762Z,15.63
2022-10-24T23:44:01.111Z,17.65
2022-10-24T23:47:03.070Z,17.02
2022-10-24T23:50:02.962Z,17.20
